createdAt,value
2023-02-13T00:04:07.498Z,-9.84
2023-02-13T00:09:29.974Z,-9.86
2023-02-13T00:14:52.140Z,-9.87
2023-02-13T00:20:14.493Z,-10.00
2023-02-13T00:25:36.250Z,-10.04
2023-02-13T00:31:05.368Z,-9.92
2023-02-13T00:36:27.163Z,-9.84
2023-02-13T00:41:49.004Z,-10.27
2023-02-13T00:47:11.263Z,-10.04
2023-02-13T00:52:33.701Z,-9.99
2023-02-13T00:57:56.183Z,-10.09
2023-02-13T01:03:18.877Z,-10.23
2023-02-13T01:08:41.692Z,-10.35
2023-02-13T01:14:04.207Z,-10.57
2023-02-13T01:19:26.376Z,-10.81
2023-02-13T01:24:48.797Z,-10.72
2023-02-13T01:30:14.328Z,-10.54
2023-02-13T01:35:36.530Z,-10.64
2023-02-13T01:40:58.958Z,-10.85
2023-02-13T01:46:38.257Z,-10.96
2023-02-13T01:52:00.814Z,-10.88
2023-02-13T02:03:27.940Z,-10.87
2023-02-13T02:08:56.650Z,-10.75
2023-02-13T02:14:20.906Z,-10.55
2023-02-13T02:19:58.986Z,-10.41
2023-02-13T02:26:02.887Z,-10.33
2023-02-13T02:31:58.765Z,-10.41
2023-02-13T02:37:37.587Z,-10.48
2023-02-13T02:43:19.593Z,-10.52
2023-02-13T02:49:18.806Z,-10.57
2023-02-13T02:55:08.743Z,-10.59
2023-02-13T03:01:03.073Z,-10.18
2023-02-13T03:06:45.408Z,-10.17
2023-02-13T03:12:28.864Z,-10.16
2023-02-13T03:18:10.076Z,-10.06
2023-02-13T03:23:50.360Z,-9.79
2023-02-13T03:29:47.980Z,-9.97
2023-02-13T03:35:46.643Z,-9.78
2023-02-13T03:41:19.337Z,-9.66
2023-02-13T03:46:47.371Z,-9.51
2023-02-13T03:52:23.222Z,-9.39
2023-02-13T03:58:06.695Z,-9.18
2023-02-13T04:03:44.035Z,-9.37
2023-02-13T04:09:06.163Z,-9.52
2023-02-13T04:14:55.144Z,-9.48
2023-02-13T04:20:17.771Z,-9.21
2023-02-13T04:25:42.397Z,-9.04
2023-02-13T04:31:04.953Z,-9.01
2023-02-13T04:36:27.640Z,-8.86
2023-02-13T04:41:49.921Z,-8.86
2023-02-13T04:47:11.798Z,-8.85
2023-02-13T04:52:34.082Z,-8.53
2023-02-13T04:57:56.763Z,-8.50
2023-02-13T05:03:18.893Z,-8.49
2023-02-13T05:08:40.913Z,-8.34
2023-02-13T05:14:03.007Z,-8.50
2023-02-13T05:19:25.261Z,-8.34
2023-02-13T05:24:47.884Z,-8.27
2023-02-13T05:30:10.551Z,-8.25
2023-02-13T05:35:32.441Z,-8.17
2023-02-13T05:40:54.287Z,-8.07
2023-02-13T05:46:16.335Z,-8.10
2023-02-13T05:51:38.329Z,-7.96
2023-02-13T05:57:00.066Z,-7.84
2023-02-13T06:02:19.521Z,-7.81
2023-02-13T06:07:42.125Z,-7.54
2023-02-13T06:13:04.212Z,-7.37
2023-02-13T06:18:26.055Z,-7.22
2023-02-13T06:23:48.041Z,-7.14
2023-02-13T06:29:11.731Z,-7.09
2023-02-13T06:34:33.702Z,-7.01
2023-02-13T06:39:55.584Z,-7.01
2023-02-13T06:45:17.286Z,-6.88
2023-02-13T06:50:39.551Z,-6.79
2023-02-13T06:56:05.868Z,-6.89
2023-02-13T07:01:28.023Z,-6.78
2023-02-13T07:06:51.984Z,-6.73
2023-02-13T07:12:13.603Z,-6.64
2023-02-13T07:17:35.703Z,-6.47
2023-02-13T07:23:05.355Z,-6.46
2023-02-13T07:28:28.837Z,-6.29
2023-02-13T07:33:51.070Z,-6.19
2023-02-13T07:39:13.479Z,-6.01
2023-02-13T07:44:36.033Z,-6.07
2023-02-13T07:49:57.862Z,-6.04
2023-02-13T07:55:20.147Z,-5.78
2023-02-13T08:00:41.936Z,-5.83
2023-02-13T08:06:04.628Z,-5.69
2023-02-13T08:11:51.958Z,-5.82
2023-02-13T08:17:14.243Z,-5.74
2023-02-13T08:22:41.045Z,-5.59
2023-02-13T08:28:03.276Z,-5.57
2023-02-13T08:33:25.522Z,-5.56
2023-02-13T08:38:48.378Z,-5.43
2023-02-13T08:44:11.109Z,-5.54
2023-02-13T08:49:34.105Z,-5.39
2023-02-13T08:54:56.342Z,-5.35
2023-02-13T09:00:19.424Z,-5.46
2023-02-13T09:05:41.766Z,-5.39
2023-02-13T09:11:07.170Z,-5.37
2023-02-13T09:16:29.047Z,-5.33
2023-02-13T09:21:50.849Z,-5.25
2023-02-13T09:27:12.649Z,-5.39
2023-02-13T09:32:35.078Z,-5.35
2023-02-13T09:37:57.027Z,-5.17
2023-02-13T09:43:32.211Z,-5.12
2023-02-13T09:49:00.812Z,-4.92
2023-02-13T09:54:23.089Z,-4.98
2023-02-13T09:59:57.859Z,-4.85
2023-02-13T10:05:40.413Z,-4.88
2023-02-13T10:11:28.614Z,-4.82
2023-02-13T10:17:01.291Z,-4.76
2023-02-13T10:22:41.122Z,-4.81
2023-02-13T10:28:18.250Z,-4.80
2023-02-13T10:34:07.166Z,-4.91
2023-02-13T10:39:31.495Z,-4.83
2023-02-13T10:45:21.529Z,-4.72
2023-02-13T10:51:14.628Z,-4.61
2023-02-13T10:57:01.608Z,-4.59
2023-02-13T11:02:25.354Z,-4.60
2023-02-13T11:07:48.932Z,-4.55
2023-02-13T11:13:22.003Z,-4.49
2023-02-13T11:18:51.179Z,-4.51
2023-02-13T11:24:25.228Z,-4.41
2023-02-13T11:29:59.183Z,-4.28
2023-02-13T11:35:33.813Z,-4.43
2023-02-13T11:41:19.140Z,-4.45
2023-02-13T11:46:50.808Z,-4.37
2023-02-13T11:52:29.099Z,-4.32
2023-02-13T11:58:24.138Z,-4.24
2023-02-13T12:03:58.857Z,-4.49
2023-02-13T12:09:20.904Z,-4.24
2023-02-13T12:14:45.766Z,-4.14
2023-02-13T12:20:16.567Z,-4.14
2023-02-13T12:26:00.763Z,-4.05
2023-02-13T12:31:53.169Z,-3.96
2023-02-13T12:37:47.207Z,-3.95
2023-02-13T12:43:34.327Z,-3.97
2023-02-13T12:49:23.827Z,-3.97
2023-02-13T12:54:57.767Z,-4.04
2023-02-13T13:00:41.172Z,-4.12
2023-02-13T13:06:24.418Z,-4.02
2023-02-13T13:12:01.711Z,-4.01
2023-02-13T13:17:52.197Z,-4.17
2023-02-13T13:23:54.332Z,-4.16
2023-02-13T13:29:30.375Z,-4.17
2023-02-13T13:34:53.170Z,-4.31
2023-02-13T13:40:38.630Z,-4.13
2023-02-13T13:46:16.537Z,-4.19
2023-02-13T13:51:39.069Z,-4.38
2023-02-13T13:57:03.136Z,-4.16
2023-02-13T14:02:27.986Z,-4.16
2023-02-13T14:07:55.767Z,-4.28
2023-02-13T14:13:31.884Z,-4.16
2023-02-13T14:18:54.340Z,-4.15
2023-02-13T14:24:20.819Z,-4.09
2023-02-13T14:29:48.990Z,-4.14
2023-02-13T14:35:26.091Z,-4.06
2023-02-13T14:40:55.300Z,-4.06
2023-02-13T14:46:30.937Z,-4.04
2023-02-13T14:51:57.551Z,-4.07
2023-02-13T15:03:29.893Z,-4.15
2023-02-13T15:08:54.179Z,-3.95
2023-02-13T15:14:26.844Z,-4.08
2023-02-13T15:19:52.350Z,-4.19
2023-02-13T15:25:34.846Z,-3.97
2023-02-13T15:31:06.205Z,-3.95
2023-02-13T15:36:41.023Z,-3.99
2023-02-13T15:42:03.822Z,-4.00
2023-02-13T15:47:32.342Z,-4.00
2023-02-13T15:52:54.880Z,-4.02
2023-02-13T15:58:17.242Z,-3.96
2023-02-13T16:03:43.028Z,-3.93
2023-02-13T16:09:06.703Z,-3.94
2023-02-13T16:14:32.489Z,-3.81
2023-02-13T16:20:13.076Z,-3.73
2023-02-13T16:25:40.169Z,-3.82
2023-02-13T16:31:03.874Z,-3.75
2023-02-13T16:36:31.107Z,-3.80
2023-02-13T16:42:00.846Z,-3.81
2023-02-13T16:47:26.238Z,-3.64
2023-02-13T16:52:48.416Z,-3.65
2023-02-13T16:58:18.805Z,-3.64
2023-02-13T17:03:42.142Z,-3.57
2023-02-13T17:09:04.287Z,-3.63
2023-02-13T17:14:26.562Z,-3.73
2023-02-13T17:19:49.591Z,-3.51
2023-02-13T17:25:23.652Z,-3.41
2023-02-13T17:30:46.439Z,-3.39
2023-02-13T17:36:12.186Z,-3.35
2023-02-13T17:41:34.249Z,-3.37
2023-02-13T17:46:56.303Z,-3.35
2023-02-13T17:52:26.208Z,-3.30
2023-02-13T17:58:13.384Z,-3.22
2023-02-13T18:03:41.183Z,-3.27
2023-02-13T18:09:03.442Z,-3.29
2023-02-13T18:14:25.842Z,-3.22
2023-02-13T18:19:51.364Z,-3.18
2023-02-13T18:25:14.888Z,-3.14
2023-02-13T18:30:37.040Z,-3.03
2023-02-13T18:36:03.375Z,-3.12
2023-02-13T18:41:26.002Z,-3.11
2023-02-13T18:46:48.466Z,-3.09
2023-02-13T18:52:10.641Z,-3.07
2023-02-13T18:57:32.918Z,-2.91
2023-02-13T19:02:59.814Z,-2.89
2023-02-13T19:08:21.603Z,-2.86
2023-02-13T19:13:44.575Z,-2.85
2023-02-13T19:19:07.755Z,-2.79
2023-02-13T19:24:29.764Z,-2.86
2023-02-13T19:29:52.344Z,-2.74
2023-02-13T19:35:14.706Z,-2.79
2023-02-13T19:40:36.348Z,-2.68
2023-02-13T19:46:02.386Z,-2.63
2023-02-13T19:51:26.719Z,-2.62
2023-02-13T19:56:48.709Z,-2.60
2023-02-13T20:02:15.208Z,-2.63
2023-02-13T20:07:48.944Z,-2.61
2023-02-13T20:13:11.129Z,-2.68
2023-02-13T20:18:35.133Z,-2.47
2023-02-13T20:23:57.423Z,-2.58
2023-02-13T20:29:19.543Z,-2.54
2023-02-13T20:34:59.002Z,-2.56
2023-02-13T20:40:22.258Z,-2.50
2023-02-13T20:45:47.766Z,-2.37
2023-02-13T20:51:15.018Z,-2.29
2023-02-13T20:56:37.160Z,-2.37
2023-02-13T21:01:59.619Z,-2.32
2023-02-13T21:07:23.897Z,-2.25
2023-02-13T21:12:45.680Z,-2.33
2023-02-13T21:18:07.659Z,-2.34
2023-02-13T21:23:29.623Z,-2.26
2023-02-13T21:28:52.324Z,-2.15
2023-02-13T21:34:15.558Z,-2.17
2023-02-13T21:39:38.021Z,-2.14
2023-02-13T21:45:00.205Z,-2.19
2023-02-13T21:50:22.786Z,-2.22
2023-02-13T21:55:44.492Z,-2.22
2023-02-13T22:01:25.494Z,-2.23
2023-02-13T22:06:51.721Z,-2.16
2023-02-13T22:12:14.013Z,-2.36
2023-02-13T22:17:37.290Z,-2.16
2023-02-13T22:22:59.396Z,-2.30
2023-02-13T22:28:21.552Z,-2.14
2023-02-13T22:33:47.445Z,-2.26
2023-02-13T22:39:13.114Z,-2.32
2023-02-13T22:44:35.098Z,-2.20
2023-02-13T22:49:57.461Z,-2.41
2023-02-13T22:55:19.730Z,-2.23
2023-02-13T23:00:42.345Z,-2.28
2023-02-13T23:06:06.300Z,-2.32
2023-02-13T23:11:48.032Z,-2.38
2023-02-13T23:17:28.758Z,-2.45
2023-02-13T23:22:50.999Z,-2.51
2023-02-13T23:28:13.020Z,-2.45
2023-02-13T23:33:35.482Z,-2.47
2023-02-13T23:38:57.860Z,-2.48
2023-02-13T23:44:19.744Z,-2.36
2023-02-13T23:49:41.841Z,-2.30
2023-02-13T23:55:03.775Z,-2.31
